Time;durP1;ratioP1;P1;durP2;ratioP2;P2;SDS_P1;SDS_P2;PMS_P1;PMS_P2;Temp;Humidity;BMP_temperature;BMP_pressure;BME280_temperature;BME280_humidity;BME280_pressure;Samples;Min_cycle;Max_cycle;Signal;HPM_P1;HPM_P2
2024/03/14 00:00:50;;;;;;;10.25;8.13;;;;;;;;;;5051338;28;20189;-72
2024/03/14 00:03:16;;;;;;;11.52;8.65;;;;;;;;;;5066110;28;20185;-72
2024/03/14 00:05:42;;;;;;;9.68;7.82;;;;;;;;;;5068534;28;20184;-72
2024/03/14 00:08:08;;;;;;;12.52;9.25;;;;;;;;;;5067478;28;20191;-72
2024/03/14 00:10:34;;;;;;;14.15;9.35;;;;;;;;;;5060062;28;20637;-73
2024/03/14 00:13:00;;;;;;;15.15;9.48;;;;;;;;;;5066785;28;20207;-72
2024/03/14 00:15:27;;;;;;;12.77;9.98;;;;;;;;;;5055374;28;20197;-72
2024/03/14 00:17:52;;;;;;;12.27;9.32;;;;;;;;;;5062967;28;20601;-72
2024/03/14 00:20:18;;;;;;;14.02;9.90;;;;;;;;;;5066683;28;20211;-72
2024/03/14 00:22:44;;;;;;;12.85;9.35;;;;;;;;;;5060377;28;20204;-72
2024/03/14 00:25:10;;;;;;;12.88;9.10;;;;;;;;;;5066965;28;20185;-72
2024/03/14 00:27:38;;;;;;;14.45;10.00;;;;;;;;;;5065586;28;20191;-72
2024/03/14 00:30:08;;;;;;;16.15;10.80;;;;;;;;;;5068812;28;20212;-72
2024/03/14 00:32:34;;;;;;;17.48;10.80;;;;;;;;;;5071457;28;20205;-72
2024/03/14 00:35:02;;;;;;;14.35;10.18;;;;;;;;;;5071094;28;20184;-72
2024/03/14 00:37:30;;;;;;;12.55;9.98;;;;;;;;;;5085848;28;20215;-72
2024/03/14 00:39:56;;;;;;;12.43;9.75;;;;;;;;;;5055475;28;20598;-72
2024/03/14 00:42:24;;;;;;;11.85;8.82;;;;;;;;;;5070137;28;20180;-72
2024/03/14 00:44:51;;;;;;;14.00;9.48;;;;;;;;;;5069310;28;20227;-72
2024/03/14 00:47:16;;;;;;;13.15;9.85;;;;;;;;;;5064085;28;20625;-72
2024/03/14 00:49:42;;;;;;;12.82;9.38;;;;;;;;;;5077409;28;20218;-72
2024/03/14 00:52:08;;;;;;;15.43;9.45;;;;;;;;;;5055918;28;20185;-73
2024/03/14 00:54:33;;;;;;;13.40;8.88;;;;;;;;;;5059728;28;20653;-72
2024/03/14 00:57:00;;;;;;;11.50;8.13;;;;;;;;;;5068274;28;20235;-72
2024/03/14 00:59:27;;;;;;;11.13;8.20;;;;;;;;;;5071246;28;20259;-72
2024/03/14 01:01:54;;;;;;;12.43;8.75;;;;;;;;;;5071281;28;20193;-71
2024/03/14 01:04:20;;;;;;;11.90;8.35;;;;;;;;;;5052608;28;20189;-71
2024/03/14 01:06:45;;;;;;;12.27;8.27;;;;;;;;;;5074865;28;20203;-72
2024/03/14 01:09:11;;;;;;;12.18;8.55;;;;;;;;;;5051047;28;20347;-72
2024/03/14 01:11:36;;;;;;;13.52;7.90;;;;;;;;;;5059377;28;20216;-72
2024/03/14 01:14:02;;;;;;;10.90;8.02;;;;;;;;;;5070740;28;20188;-71
2024/03/14 01:16:29;;;;;;;11.30;7.97;;;;;;;;;;5067362;28;20227;-71
2024/03/14 01:18:54;;;;;;;11.30;7.82;;;;;;;;;;5068377;28;20213;-72
2024/03/14 01:21:20;;;;;;;10.45;7.38;;;;;;;;;;5061532;28;20186;-72
2024/03/14 01:23:45;;;;;;;12.70;7.90;;;;;;;;;;5061632;28;20183;-72
2024/03/14 01:26:11;;;;;;;12.95;7.63;;;;;;;;;;5072860;28;20209;-73
2024/03/14 01:28:36;;;;;;;10.52;7.25;;;;;;;;;;5062490;28;20417;-72
2024/03/14 01:31:02;;;;;;;10.18;7.10;;;;;;;;;;5069429;28;20242;-72
2024/03/14 01:33:28;;;;;;;8.10;7.00;;;;;;;;;;5066702;28;20199;-72
2024/03/14 01:35:58;;;;;;;10.13;7.57;;;;;;;;;;5065483;28;20236;-72
2024/03/14 01:38:24;;;;;;;12.32;6.85;;;;;;;;;;5058113;28;20202;-72
2024/03/14 01:40:50;;;;;;;9.80;7.10;;;;;;;;;;5069202;28;20185;-72
2024/03/14 01:43:15;;;;;;;8.82;6.78;;;;;;;;;;5070653;28;20180;-72
2024/03/14 01:45:42;;;;;;;10.65;6.53;;;;;;;;;;5068960;28;20189;-71
2024/03/14 01:48:09;;;;;;;9.93;6.45;;;;;;;;;;5058398;28;20192;-72
2024/03/14 01:50:34;;;;;;;8.90;6.85;;;;;;;;;;5069704;28;20220;-72
2024/03/14 01:53:00;;;;;;;8.05;6.10;;;;;;;;;;5049298;28;20258;-72
2024/03/14 01:55:25;;;;;;;9.00;6.18;;;;;;;;;;5048895;28;20196;-73
2024/03/14 01:57:51;;;;;;;9.27;6.43;;;;;;;;;;5054568;28;20205;-72
2024/03/14 02:00:18;;;;;;;8.27;6.78;;;;;;;;;;5068031;28;20181;-72
2024/03/14 02:02:45;;;;;;;7.65;6.18;;;;;;;;;;5068955;28;20285;-72
2024/03/14 02:05:34;;;;;;;8.85;6.13;;;;;;;;;;5054994;28;20181;-72
2024/03/14 02:07:59;;;;;;;7.30;6.03;;;;;;;;;;5077702;28;20804;-72
2024/03/14 02:10:25;;;;;;;6.88;5.85;;;;;;;;;;5069786;28;20217;-72
2024/03/14 02:12:54;;;;;;;8.00;6.47;;;;;;;;;;5067769;28;20192;-72
2024/03/14 02:15:20;;;;;;;7.90;6.57;;;;;;;;;;5067677;28;20194;-72
2024/03/14 02:17:45;;;;;;;8.63;6.82;;;;;;;;;;5069154;28;20754;-72
2024/03/14 02:20:16;;;;;;;8.45;6.53;;;;;;;;;;5054628;28;20216;-72
2024/03/14 02:22:43;;;;;;;8.75;6.85;;;;;;;;;;5056085;28;20246;-73
2024/03/14 02:25:08;;;;;;;9.25;7.13;;;;;;;;;;5070406;28;20210;-72
2024/03/14 02:27:34;;;;;;;7.43;6.10;;;;;;;;;;5066230;28;20204;-72
2024/03/14 02:30:00;;;;;;;9.57;6.97;;;;;;;;;;5069552;28;20212;-72
2024/03/14 02:32:26;;;;;;;9.85;7.65;;;;;;;;;;5068042;28;23095;-72
2024/03/14 02:34:51;;;;;;;8.98;7.07;;;;;;;;;;5066415;28;20180;-72
2024/03/14 02:37:17;;;;;;;10.20;7.90;;;;;;;;;;5060393;28;20349;-72
2024/03/14 02:39:44;;;;;;;8.73;7.20;;;;;;;;;;5060385;28;20547;-72
2024/03/14 02:42:11;;;;;;;12.32;7.95;;;;;;;;;;5062240;28;20181;-72
2024/03/14 02:44:37;;;;;;;13.43;8.13;;;;;;;;;;5052347;28;20195;-72
2024/03/14 02:47:03;;;;;;;12.20;9.25;;;;;;;;;;5066966;28;20283;-73
2024/03/14 02:49:29;;;;;;;11.07;9.00;;;;;;;;;;5056651;28;20216;-73
2024/03/14 02:51:54;;;;;;;12.88;8.98;;;;;;;;;;5055357;28;20283;-72
2024/03/14 02:54:20;;;;;;;11.93;9.05;;;;;;;;;;5066142;28;20213;-72
2024/03/14 02:56:49;;;;;;;13.18;10.20;;;;;;;;;;5058298;28;20189;-72
2024/03/14 02:59:15;;;;;;;14.35;10.90;;;;;;;;;;5059852;28;20201;-72
2024/03/14 03:01:41;;;;;;;12.30;10.55;;;;;;;;;;5057131;28;20550;-72
2024/03/14 03:04:09;;;;;;;14.75;10.02;;;;;;;;;;5072283;28;20621;-72
2024/03/14 03:06:34;;;;;;;15.68;11.77;;;;;;;;;;5055542;28;20202;-72
2024/03/14 03:08:59;;;;;;;13.57;10.93;;;;;;;;;;5064778;28;20295;-72
2024/03/14 03:11:26;;;;;;;13.75;10.45;;;;;;;;;;5058549;28;20201;-72
2024/03/14 03:13:52;;;;;;;14.23;10.73;;;;;;;;;;5060958;28;20188;-72
2024/03/14 03:16:19;;;;;;;16.52;11.60;;;;;;;;;;5064975;28;20200;-72
2024/03/14 03:18:44;;;;;;;15.00;11.23;;;;;;;;;;5062725;28;20688;-72
2024/03/14 03:21:10;;;;;;;14.82;10.98;;;;;;;;;;5066704;28;20184;-72
2024/03/14 03:23:35;;;;;;;15.57;11.55;;;;;;;;;;5061241;28;20292;-73
2024/03/14 03:26:01;;;;;;;13.20;11.07;;;;;;;;;;5071132;28;20271;-72
2024/03/14 03:28:30;;;;;;;19.10;12.50;;;;;;;;;;5066981;28;20193;-73
2024/03/14 03:30:55;;;;;;;18.33;13.38;;;;;;;;;;5063301;28;20267;-72
2024/03/14 03:33:23;;;;;;;18.27;12.65;;;;;;;;;;5063474;28;20316;-72
2024/03/14 03:35:48;;;;;;;17.30;12.60;;;;;;;;;;5066816;28;20668;-72
2024/03/14 03:38:14;;;;;;;17.23;13.45;;;;;;;;;;5063487;28;20184;-72
2024/03/14 03:40:40;;;;;;;17.88;13.32;;;;;;;;;;5073611;28;20633;-72
2024/03/14 03:43:07;;;;;;;16.98;13.80;;;;;;;;;;5055690;28;20250;-72
2024/03/14 03:45:32;;;;;;;17.52;12.82;;;;;;;;;;5056923;28;20212;-72
2024/03/14 03:47:58;;;;;;;19.63;14.35;;;;;;;;;;5057873;28;20657;-72
2024/03/14 03:50:23;;;;;;;19.30;13.80;;;;;;;;;;5062297;28;20365;-72
2024/03/14 03:52:49;;;;;;;19.05;14.40;;;;;;;;;;5061555;28;20204;-71
2024/03/14 03:55:18;;;;;;;18.58;13.75;;;;;;;;;;5059779;28;20197;-72
2024/03/14 03:57:44;;;;;;;20.20;13.90;;;;;;;;;;5060666;28;20280;-72
2024/03/14 04:02:54;;;;;;;21.85;15.57;;;;;;;;;;5070057;28;20625;-72
2024/03/14 04:05:20;;;;;;;21.00;15.75;;;;;;;;;;5065014;28;20189;-72
2024/03/14 04:07:49;;;;;;;22.88;15.07;;;;;;;;;;5068366;28;20609;-72
2024/03/14 04:10:15;;;;;;;19.90;14.75;;;;;;;;;;5056201;28;20620;-72
2024/03/14 04:12:40;;;;;;;19.98;14.73;;;;;;;;;;5059632;28;20193;-72
2024/03/14 04:15:06;;;;;;;18.25;14.60;;;;;;;;;;5068931;28;20193;-72
2024/03/14 04:17:33;;;;;;;19.83;14.02;;;;;;;;;;5063082;28;20959;-71
2024/03/14 04:19:59;;;;;;;19.88;14.73;;;;;;;;;;5055175;28;20209;-72
2024/03/14 04:22:25;;;;;;;22.38;15.60;;;;;;;;;;5067008;28;20209;-72
2024/03/14 04:24:51;;;;;;;20.42;15.77;;;;;;;;;;5060593;28;20643;-72
2024/03/14 04:27:21;;;;;;;21.95;16.52;;;;;;;;;;5063080;28;20193;-72
2024/03/14 04:29:47;;;;;;;20.70;15.70;;;;;;;;;;5058176;28;20240;-72
2024/03/14 04:32:13;;;;;;;23.05;16.25;;;;;;;;;;5070869;28;20193;-72
2024/03/14 04:34:41;;;;;;;23.15;16.30;;;;;;;;;;5066407;28;20197;-72
2024/03/14 04:37:07;;;;;;;22.40;16.38;;;;;;;;;;5063515;28;20205;-72
2024/03/14 04:39:33;;;;;;;25.17;16.35;;;;;;;;;;5064367;28;20334;-72
2024/03/14 04:41:59;;;;;;;20.08;15.43;;;;;;;;;;5066963;28;20188;-72
2024/03/14 04:44:25;;;;;;;24.25;16.50;;;;;;;;;;5069022;28;20716;-72
2024/03/14 04:46:54;;;;;;;21.30;16.58;;;;;;;;;;5070225;28;20185;-72
2024/03/14 04:49:21;;;;;;;24.10;16.15;;;;;;;;;;5071309;28;20243;-72
2024/03/14 04:51:47;;;;;;;25.45;16.10;;;;;;;;;;5068169;28;20180;-72
2024/03/14 04:54:14;;;;;;;22.45;17.20;;;;;;;;;;5058055;28;20273;-72
2024/03/14 04:56:40;;;;;;;25.35;16.58;;;;;;;;;;5066662;28;20188;-72
2024/03/14 04:59:09;;;;;;;22.48;16.88;;;;;;;;;;5041677;28;20250;-72
2024/03/14 05:01:35;;;;;;;26.77;16.25;;;;;;;;;;5065722;28;20193;-72
2024/03/14 05:04:01;;;;;;;23.52;15.88;;;;;;;;;;5063728;28;20690;-72
2024/03/14 05:06:26;;;;;;;23.35;16.95;;;;;;;;;;5070456;28;20231;-72
2024/03/14 05:08:54;;;;;;;25.65;16.77;;;;;;;;;;5069991;28;20217;-72
2024/03/14 05:11:19;;;;;;;21.55;16.42;;;;;;;;;;5051510;28;20272;-72
2024/03/14 05:13:47;;;;;;;22.67;16.50;;;;;;;;;;5069753;28;20276;-72
2024/03/14 05:16:14;;;;;;;22.67;15.50;;;;;;;;;;5067065;28;20254;-72
2024/03/14 05:18:40;;;;;;;25.77;17.75;;;;;;;;;;5067480;28;20529;-72
2024/03/14 05:21:10;;;;;;;25.67;16.92;;;;;;;;;;5063410;28;20219;-72
2024/03/14 05:23:36;;;;;;;24.05;16.83;;;;;;;;;;5069044;28;20191;-72
2024/03/14 05:26:02;;;;;;;22.20;16.58;;;;;;;;;;5058890;28;20208;-72
2024/03/14 05:28:27;;;;;;;24.52;16.63;;;;;;;;;;5063905;28;20181;-71
2024/03/14 05:30:53;;;;;;;22.50;16.45;;;;;;;;;;5052077;28;20542;-71
2024/03/14 05:33:19;;;;;;;23.52;16.67;;;;;;;;;;5056081;28;20192;-72
2024/03/14 05:35:46;;;;;;;20.27;15.40;;;;;;;;;;5061327;28;20301;-72
2024/03/14 05:38:13;;;;;;;23.13;16.17;;;;;;;;;;5053091;28;20193;-72
2024/03/14 05:40:38;;;;;;;22.58;16.63;;;;;;;;;;5053019;28;20181;-72
2024/03/14 05:43:04;;;;;;;20.58;15.70;;;;;;;;;;5060885;28;20280;-72
2024/03/14 05:45:34;;;;;;;22.35;16.73;;;;;;;;;;5058571;28;20233;-72
2024/03/14 05:48:09;;;;;;;24.90;16.77;;;;;;;;;;5053925;28;20189;-72
2024/03/14 05:50:35;;;;;;;23.70;15.93;;;;;;;;;;5066212;28;20244;-72
2024/03/14 05:53:00;;;;;;;22.15;16.02;;;;;;;;;;5065467;28;20227;-72
2024/03/14 05:55:25;;;;;;;24.40;15.90;;;;;;;;;;5064528;28;20295;-72
2024/03/14 05:57:51;;;;;;;21.45;14.82;;;;;;;;;;5062159;28;20207;-72
2024/03/14 06:00:20;;;;;;;21.85;15.77;;;;;;;;;;5062445;28;20275;-72
2024/03/14 06:02:46;;;;;;;20.83;16.15;;;;;;;;;;5054691;28;20193;-72
2024/03/14 06:05:12;;;;;;;21.50;16.02;;;;;;;;;;5058730;28;20197;-72
2024/03/14 06:07:38;;;;;;;21.42;16.10;;;;;;;;;;5076655;28;20659;-72
2024/03/14 06:10:03;;;;;;;22.10;15.40;;;;;;;;;;5067319;28;20688;-72
2024/03/14 06:12:29;;;;;;;21.75;15.48;;;;;;;;;;5066279;28;20279;-72
2024/03/14 06:14:55;;;;;;;22.85;15.38;;;;;;;;;;5050329;28;20258;-72
2024/03/14 06:17:20;;;;;;;21.73;15.70;;;;;;;;;;5065927;28;20200;-72
2024/03/14 06:19:46;;;;;;;22.35;15.77;;;;;;;;;;5058056;28;20215;-72
2024/03/14 06:22:14;;;;;;;22.27;15.70;;;;;;;;;;5060358;28;20281;-72
2024/03/14 06:24:43;;;;;;;24.13;16.83;;;;;;;;;;5066361;28;20676;-72
2024/03/14 06:27:10;;;;;;;21.80;15.65;;;;;;;;;;5056740;28;20213;-72
2024/03/14 06:29:37;;;;;;;18.88;14.93;;;;;;;;;;5064218;28;20302;-72
2024/03/14 06:32:02;;;;;;;20.70;15.13;;;;;;;;;;5053210;28;20207;-71
2024/03/14 06:34:29;;;;;;;20.77;15.05;;;;;;;;;;5058744;28;20189;-71
2024/03/14 06:36:55;;;;;;;19.30;14.82;;;;;;;;;;5067660;28;20333;-72
2024/03/14 06:39:21;;;;;;;22.20;14.82;;;;;;;;;;5065794;28;20301;-72
2024/03/14 06:41:46;;;;;;;22.63;15.38;;;;;;;;;;5058028;28;20562;-72
2024/03/14 06:44:13;;;;;;;19.10;15.07;;;;;;;;;;5063749;28;20193;-72
2024/03/14 06:46:39;;;;;;;20.40;14.82;;;;;;;;;;5062755;28;20695;-72
2024/03/14 06:49:12;;;;;;;21.15;14.25;;;;;;;;;;5076069;28;20589;-72
2024/03/14 06:51:38;;;;;;;18.58;14.43;;;;;;;;;;5066827;28;20748;-72
2024/03/14 06:54:04;;;;;;;22.02;14.35;;;;;;;;;;5057463;28;20271;-72
2024/03/14 06:56:30;;;;;;;21.92;14.95;;;;;;;;;;5065528;28;20275;-71
2024/03/14 06:58:57;;;;;;;18.05;13.38;;;;;;;;;;5072697;28;20192;-72
2024/03/14 07:01:23;;;;;;;18.13;13.05;;;;;;;;;;5074685;28;20184;-71
2024/03/14 07:03:48;;;;;;;19.52;14.00;;;;;;;;;;5052050;28;20189;-72
2024/03/14 07:06:14;;;;;;;21.75;13.40;;;;;;;;;;5033190;28;20193;-72
2024/03/14 07:08:42;;;;;;;17.10;13.25;;;;;;;;;;5065469;28;20235;-72
2024/03/14 07:11:11;;;;;;;16.33;12.63;;;;;;;;;;5065839;28;20231;-71
2024/03/14 07:13:38;;;;;;;18.58;13.90;;;;;;;;;;5062377;28;20276;-72
2024/03/14 07:16:09;;;;;;;16.33;12.38;;;;;;;;;;5068221;28;20199;-72
2024/03/14 07:18:36;;;;;;;18.83;12.88;;;;;;;;;;5071838;28;20201;-72
2024/03/14 07:21:03;;;;;;;17.17;12.38;;;;;;;;;;5065728;28;20189;-71
2024/03/14 07:23:31;;;;;;;16.48;12.30;;;;;;;;;;5068479;28;20308;-72
2024/03/14 07:25:58;;;;;;;16.77;11.88;;;;;;;;;;5064871;28;20238;-72
2024/03/14 07:28:24;;;;;;;17.88;11.57;;;;;;;;;;5051008;28;20280;-72
2024/03/14 07:30:49;;;;;;;17.33;12.38;;;;;;;;;;5059306;28;20224;-72
2024/03/14 07:33:15;;;;;;;16.35;11.85;;;;;;;;;;5059474;28;20271;-71
2024/03/14 07:35:44;;;;;;;20.23;12.75;;;;;;;;;;5057051;28;20561;-71
2024/03/14 07:38:13;;;;;;;13.23;10.27;;;;;;;;;;5069263;28;20676;-71
2024/03/14 07:40:38;;;;;;;15.25;11.15;;;;;;;;;;5070009;28;20181;-71
2024/03/14 07:43:04;;;;;;;14.00;10.30;;;;;;;;;;5059135;28;20207;-71
2024/03/14 07:45:29;;;;;;;14.55;9.93;;;;;;;;;;5060392;28;20664;-71
2024/03/14 07:47:55;;;;;;;12.32;10.15;;;;;;;;;;5069934;28;20640;-71
2024/03/14 07:50:22;;;;;;;12.07;9.30;;;;;;;;;;5070138;28;20231;-72
2024/03/14 07:52:48;;;;;;;14.00;9.90;;;;;;;;;;5064879;28;20492;-73
2024/03/14 07:55:16;;;;;;;11.20;8.68;;;;;;;;;;5066245;28;20196;-71
2024/03/14 07:57:42;;;;;;;13.45;9.50;;;;;;;;;;5060197;28;20211;-71
2024/03/14 08:00:08;;;;;;;11.57;8.73;;;;;;;;;;5058598;28;20263;-71
2024/03/14 08:02:34;;;;;;;13.02;8.88;;;;;;;;;;5070705;28;20200;-72
2024/03/14 08:05:06;;;;;;;12.43;8.65;;;;;;;;;;5067084;28;20640;-71
2024/03/14 08:07:33;;;;;;;12.77;8.40;;;;;;;;;;5068591;28;20189;-72
2024/03/14 08:09:58;;;;;;;13.65;9.30;;;;;;;;;;5061742;28;20220;-72
2024/03/14 08:12:24;;;;;;;10.15;8.15;;;;;;;;;;5065856;28;20208;-71
2024/03/14 08:14:58;;;;;;;9.65;7.90;;;;;;;;;;5065082;28;20215;-72
2024/03/14 08:17:26;;;;;;;10.68;7.93;;;;;;;;;;5057518;28;20292;-71
2024/03/14 08:19:56;;;;;;;9.98;8.63;;;;;;;;;;5062426;28;20274;-72
2024/03/14 08:22:23;;;;;;;11.18;8.30;;;;;;;;;;5064369;28;20280;-72
2024/03/14 08:24:52;;;;;;;9.90;8.02;;;;;;;;;;5065031;28;20189;-73
2024/03/14 08:27:19;;;;;;;10.73;7.70;;;;;;;;;;5064402;28;20668;-72
2024/03/14 08:29:46;;;;;;;12.50;8.65;;;;;;;;;;5065762;28;20201;-71
2024/03/14 08:32:14;;;;;;;9.75;7.55;;;;;;;;;;5069853;28;20201;-71
2024/03/14 08:34:40;;;;;;;8.98;7.25;;;;;;;;;;5070707;28;20228;-71
2024/03/14 08:37:06;;;;;;;9.38;7.18;;;;;;;;;;5070285;28;20229;-71
2024/03/14 08:39:31;;;;;;;9.57;7.63;;;;;;;;;;5065970;28;20184;-72
2024/03/14 08:41:58;;;;;;;7.70;6.78;;;;;;;;;;5064093;28;20194;-72
2024/03/14 08:44:26;;;;;;;8.98;7.28;;;;;;;;;;5067031;28;20188;-71
2024/03/14 08:46:52;;;;;;;7.88;7.07;;;;;;;;;;5070935;28;20259;-71
2024/03/14 08:49:18;;;;;;;9.57;7.32;;;;;;;;;;5070278;28;20213;-72
2024/03/14 08:51:44;;;;;;;8.65;7.40;;;;;;;;;;5062490;28;20211;-72
2024/03/14 08:54:16;;;;;;;10.07;6.68;;;;;;;;;;5069865;28;20667;-71
2024/03/14 08:56:41;;;;;;;10.23;7.13;;;;;;;;;;5056079;28;20177;-71
2024/03/14 08:59:07;;;;;;;14.05;7.00;;;;;;;;;;5070516;28;20681;-71
2024/03/14 09:01:33;;;;;;;9.65;6.90;;;;;;;;;;5067664;28;20211;-72
2024/03/14 09:03:59;;;;;;;11.00;6.25;;;;;;;;;;5063413;28;20558;-71
2024/03/14 09:06:28;;;;;;;8.50;5.85;;;;;;;;;;5066665;28;20181;-72
2024/03/14 09:09:00;;;;;;;7.93;6.50;;;;;;;;;;5079470;28;20209;-72
2024/03/14 09:11:32;;;;;;;8.20;5.95;;;;;;;;;;5073574;28;20204;-72
2024/03/14 09:13:58;;;;;;;6.35;5.43;;;;;;;;;;5074884;28;20177;-71
2024/03/14 09:16:26;;;;;;;8.20;6.22;;;;;;;;;;5078655;28;20212;-71
2024/03/14 09:18:52;;;;;;;7.93;5.93;;;;;;;;;;5081720;28;20209;-71
2024/03/14 09:21:19;;;;;;;9.82;6.22;;;;;;;;;;5079799;28;20207;-71
2024/03/14 09:23:45;;;;;;;8.18;5.68;;;;;;;;;;5080126;28;20192;-70
2024/03/14 09:26:11;;;;;;;7.68;5.25;;;;;;;;;;5079182;28;20191;-72
2024/03/14 09:28:41;;;;;;;6.85;4.97;;;;;;;;;;5078484;28;20193;-72
2024/03/14 09:31:08;;;;;;;6.18;5.20;;;;;;;;;;5081623;28;20196;-71
2024/03/14 09:33:34;;;;;;;6.55;5.28;;;;;;;;;;5081454;28;20188;-70
2024/03/14 09:36:00;;;;;;;6.03;4.90;;;;;;;;;;5079959;28;20224;-71
2024/03/14 09:38:27;;;;;;;10.38;5.22;;;;;;;;;;5078707;28;20284;-71
2024/03/14 09:40:54;;;;;;;8.20;5.22;;;;;;;;;;5072030;28;20176;-72
2024/03/14 09:43:19;;;;;;;7.95;5.40;;;;;;;;;;5070804;28;20207;-71
2024/03/14 09:45:47;;;;;;;6.70;4.72;;;;;;;;;;5068396;28;20192;-71
2024/03/14 09:48:12;;;;;;;6.60;4.68;;;;;;;;;;5079677;28;20189;-72
2024/03/14 09:50:38;;;;;;;7.15;4.65;;;;;;;;;;5076631;28;20204;-71
2024/03/14 09:53:05;;;;;;;6.25;5.13;;;;;;;;;;5068833;28;20187;-70
2024/03/14 09:55:32;;;;;;;6.28;4.85;;;;;;;;;;5077846;28;20259;-70
2024/03/14 09:57:58;;;;;;;7.57;5.25;;;;;;;;;;5072046;28;20185;-70
2024/03/14 10:00:26;;;;;;;5.90;4.80;;;;;;;;;;5079447;28;20187;-71
2024/03/14 10:02:55;;;;;;;6.38;5.05;;;;;;;;;;5063503;28;20272;-71
2024/03/14 10:05:21;;;;;;;7.72;5.05;;;;;;;;;;5079650;28;20181;-70
2024/03/14 10:07:47;;;;;;;7.60;4.80;;;;;;;;;;5080758;28;20245;-70
2024/03/14 10:10:13;;;;;;;5.28;4.53;;;;;;;;;;5079688;28;20214;-71
2024/03/14 10:12:47;;;;;;;6.05;4.45;;;;;;;;;;5076321;28;20193;-71
2024/03/14 10:15:13;;;;;;;6.70;5.03;;;;;;;;;;5081059;28;20190;-71
2024/03/14 10:17:40;;;;;;;7.68;4.97;;;;;;;;;;5072768;28;20550;-71
2024/03/14 10:20:13;;;;;;;6.78;4.55;;;;;;;;;;5076510;28;20204;-71
2024/03/14 10:22:39;;;;;;;6.50;4.47;;;;;;;;;;5079047;28;20681;-71
2024/03/14 10:25:16;;;;;;;5.05;4.53;;;;;;;;;;5080866;28;20989;-71
2024/03/14 10:27:47;;;;;;;5.18;4.68;;;;;;;;;;5079340;28;20215;-71
2024/03/14 10:30:14;;;;;;;4.88;4.05;;;;;;;;;;5077000;28;20314;-71
2024/03/14 10:32:39;;;;;;;5.70;5.00;;;;;;;;;;5077310;28;20289;-72
2024/03/14 10:35:10;;;;;;;8.18;4.90;;;;;;;;;;5076574;28;20650;-70
2024/03/14 10:37:40;;;;;;;7.05;4.57;;;;;;;;;;5070786;28;20616;-70
2024/03/14 10:40:29;;;;;;;8.23;5.60;;;;;;;;;;5062657;28;20192;-70
2024/03/14 10:42:56;;;;;;;6.55;4.97;;;;;;;;;;5080043;28;20261;-71
2024/03/14 10:45:26;;;;;;;7.15;5.20;;;;;;;;;;5073566;28;20192;-70
2024/03/14 10:47:53;;;;;;;5.30;4.80;;;;;;;;;;5080609;28;20231;-70
2024/03/14 10:50:19;;;;;;;5.55;4.97;;;;;;;;;;5078998;28;20223;-70
2024/03/14 10:52:50;;;;;;;7.50;5.00;;;;;;;;;;5075839;28;20559;-70
2024/03/14 10:55:23;;;;;;;6.13;4.85;;;;;;;;;;5075190;28;20604;-70
2024/03/14 10:57:50;;;;;;;5.95;4.65;;;;;;;;;;5075994;28;20186;-70
2024/03/14 11:00:21;;;;;;;8.30;4.75;;;;;;;;;;5064863;28;20192;-70
2024/03/14 11:02:49;;;;;;;5.72;4.88;;;;;;;;;;5067977;28;20189;-71
2024/03/14 11:05:17;;;;;;;5.85;4.57;;;;;;;;;;5074408;28;20207;-70
2024/03/14 11:07:48;;;;;;;7.47;5.10;;;;;;;;;;5063674;28;20186;-70
2024/03/14 11:10:28;;;;;;;6.35;5.05;;;;;;;;;;5068978;28;20223;-70
2024/03/14 11:13:01;;;;;;;6.63;5.00;;;;;;;;;;5076545;28;20184;-71
2024/03/14 11:15:28;;;;;;;5.63;4.72;;;;;;;;;;5076884;28;20192;-71
2024/03/14 11:17:59;;;;;;;7.15;5.00;;;;;;;;;;5072540;28;20208;-70
2024/03/14 11:20:32;;;;;;;7.97;5.20;;;;;;;;;;5074314;28;20204;-71
2024/03/14 11:23:01;;;;;;;7.25;4.85;;;;;;;;;;5080367;28;20192;-71
2024/03/14 11:25:30;;;;;;;6.50;4.70;;;;;;;;;;5082006;28;20196;-70
2024/03/14 11:27:56;;;;;;;6.25;5.15;;;;;;;;;;5069654;28;20189;-70
2024/03/14 11:30:22;;;;;;;5.47;4.45;;;;;;;;;;5073593;28;20698;-70
2024/03/14 11:32:58;;;;;;;5.28;4.47;;;;;;;;;;5064746;28;20196;-70
2024/03/14 11:35:47;;;;;;;5.82;4.22;;;;;;;;;;5066491;28;20252;-71
2024/03/14 11:38:15;;;;;;;5.22;4.72;;;;;;;;;;5064721;28;20199;-71
2024/03/14 11:40:48;;;;;;;6.70;4.63;;;;;;;;;;5065127;28;20177;-71
2024/03/14 11:43:24;;;;;;;5.00;4.47;;;;;;;;;;5052553;28;20189;-70
2024/03/14 11:46:01;;;;;;;6.68;4.60;;;;;;;;;;5059831;28;20234;-70
2024/03/14 11:48:30;;;;;;;7.22;4.60;;;;;;;;;;5068377;28;20184;-70
2024/03/14 11:51:01;;;;;;;6.18;4.85;;;;;;;;;;5061833;28;20744;-71
2024/03/14 11:53:29;;;;;;;6.10;4.97;;;;;;;;;;5061572;28;20234;-71
2024/03/14 11:55:56;;;;;;;7.65;5.05;;;;;;;;;;5069393;28;20197;-70
2024/03/14 11:58:21;;;;;;;5.25;4.72;;;;;;;;;;5054368;28;20181;-70
2024/03/14 12:00:48;;;;;;;7.85;5.22;;;;;;;;;;5068369;28;20173;-70
2024/03/14 12:03:14;;;;;;;5.85;4.90;;;;;;;;;;5061332;28;20199;-70
2024/03/14 12:05:44;;;;;;;5.20;4.70;;;;;;;;;;5054767;28;20269;-71
2024/03/14 12:08:10;;;;;;;6.85;4.97;;;;;;;;;;5067445;28;20589;-71
2024/03/14 12:10:39;;;;;;;5.18;4.68;;;;;;;;;;5067870;28;20209;-70
2024/03/14 12:13:12;;;;;;;6.30;4.88;;;;;;;;;;5069485;28;20201;-70
2024/03/14 12:15:37;;;;;;;5.95;4.88;;;;;;;;;;5059102;28;20185;-71
2024/03/14 12:18:04;;;;;;;5.40;4.40;;;;;;;;;;5068689;28;20207;-70
2024/03/14 12:20:32;;;;;;;4.68;4.28;;;;;;;;;;5057989;28;20302;-70
2024/03/14 12:22:57;;;;;;;6.07;4.50;;;;;;;;;;5068337;28;20234;-70
2024/03/14 12:25:26;;;;;;;6.57;4.20;;;;;;;;;;5074131;28;20235;-70
2024/03/14 12:27:52;;;;;;;5.00;4.38;;;;;;;;;;5073868;28;20239;-69
2024/03/14 12:30:20;;;;;;;5.10;4.53;;;;;;;;;;5053288;28;20200;-70
2024/03/14 12:32:54;;;;;;;4.68;4.15;;;;;;;;;;5070979;28;20219;-70
2024/03/14 12:35:20;;;;;;;6.22;4.50;;;;;;;;;;5062359;28;20240;-70
2024/03/14 12:37:48;;;;;;;5.97;4.88;;;;;;;;;;5066083;28;20189;-70
2024/03/14 12:40:17;;;;;;;5.07;4.57;;;;;;;;;;5063239;28;20188;-70
2024/03/14 12:42:46;;;;;;;5.60;4.68;;;;;;;;;;5065582;28;20295;-70
2024/03/14 12:45:13;;;;;;;6.40;5.13;;;;;;;;;;5071950;28;20499;-70
2024/03/14 12:47:41;;;;;;;5.13;4.47;;;;;;;;;;5062296;28;20207;-70
2024/03/14 12:50:21;;;;;;;4.72;4.30;;;;;;;;;;5072608;28;20208;-70
2024/03/14 12:53:05;;;;;;;6.18;4.68;;;;;;;;;;5069935;28;20188;-70
2024/03/14 12:55:34;;;;;;;5.75;5.10;;;;;;;;;;5070940;28;20690;-70
2024/03/14 12:58:01;;;;;;;6.70;4.97;;;;;;;;;;5071588;28;20648;-72
2024/03/14 13:00:32;;;;;;;6.13;4.72;;;;;;;;;;5072020;28;20559;-71
2024/03/14 13:02:58;;;;;;;4.55;4.07;;;;;;;;;;5070002;28;20224;-70
2024/03/14 13:05:28;;;;;;;4.72;4.32;;;;;;;;;;5071014;28;20192;-70
2024/03/14 13:08:07;;;;;;;6.25;4.97;;;;;;;;;;5055916;28;20189;-70
2024/03/14 13:10:37;;;;;;;4.80;4.40;;;;;;;;;;5071230;28;20255;-70
2024/03/14 13:13:17;;;;;;;7.45;4.50;;;;;;;;;;5070139;28;20231;-70
2024/03/14 13:15:50;;;;;;;4.43;4.03;;;;;;;;;;5059341;28;20694;-70
2024/03/14 13:18:21;;;;;;;5.13;4.63;;;;;;;;;;5068027;28;20185;-71
2024/03/14 13:21:02;;;;;;;5.40;3.85;;;;;;;;;;5063509;28;20588;-71
2024/03/14 13:23:28;;;;;;;5.07;3.90;;;;;;;;;;5072590;28;20277;-71
2024/03/14 13:25:54;;;;;;;4.40;3.75;;;;;;;;;;5070833;28;20504;-71
2024/03/14 13:28:19;;;;;;;4.30;3.90;;;;;;;;;;5069711;28;20227;-70
2024/03/14 13:30:45;;;;;;;5.55;4.20;;;;;;;;;;5066606;28;20298;-71
2024/03/14 13:33:12;;;;;;;7.35;4.10;;;;;;;;;;5067040;28;20259;-71
2024/03/14 13:35:41;;;;;;;5.32;4.47;;;;;;;;;;5069134;28;20248;-70
2024/03/14 13:38:12;;;;;;;6.43;4.57;;;;;;;;;;5066404;28;20183;-70
2024/03/14 13:40:41;;;;;;;6.50;4.30;;;;;;;;;;5069441;28;20539;-70
2024/03/14 13:43:07;;;;;;;5.82;4.78;;;;;;;;;;5070101;28;20682;-70
2024/03/14 13:45:44;;;;;;;4.93;4.05;;;;;;;;;;5065461;28;20272;-70
2024/03/14 13:48:09;;;;;;;5.70;3.85;;;;;;;;;;5059333;28;20272;-70
2024/03/14 13:50:35;;;;;;;5.70;4.07;;;;;;;;;;5069229;28;20708;-70
2024/03/14 13:53:04;;;;;;;4.82;3.58;;;;;;;;;;5064291;28;20200;-70
2024/03/14 13:55:40;;;;;;;5.55;3.63;;;;;;;;;;5067183;28;20599;-70
2024/03/14 13:58:06;;;;;;;4.68;3.75;;;;;;;;;;5059286;28;20695;-70
2024/03/14 14:00:45;;;;;;;6.95;3.60;;;;;;;;;;5064769;28;20212;-70
2024/03/14 14:03:14;;;;;;;4.95;4.22;;;;;;;;;;5056954;28;20559;-71
2024/03/14 14:05:39;;;;;;;6.90;4.45;;;;;;;;;;5066946;28;20684;-71
2024/03/14 14:08:05;;;;;;;5.68;4.53;;;;;;;;;;5064476;28;20292;-70
2024/03/14 14:10:32;;;;;;;5.57;3.70;;;;;;;;;;5063123;28;20250;-71
2024/03/14 14:12:58;;;;;;;6.40;3.42;;;;;;;;;;5080096;28;20705;-71
2024/03/14 14:15:23;;;;;;;4.30;3.50;;;;;;;;;;5061605;28;20610;-71
2024/03/14 14:17:49;;;;;;;3.70;3.40;;;;;;;;;;5078703;28;20216;-71
2024/03/14 14:20:17;;;;;;;3.53;3.00;;;;;;;;;;5079618;28;20201;-71
2024/03/14 14:22:43;;;;;;;3.63;3.17;;;;;;;;;;5057813;28;20197;-70
2024/03/14 14:25:12;;;;;;;3.65;2.97;;;;;;;;;;5067235;28;20271;-70
2024/03/14 14:27:44;;;;;;;6.68;3.63;;;;;;;;;;5068002;28;20258;-70
2024/03/14 14:30:21;;;;;;;7.65;4.43;;;;;;;;;;5052431;28;20201;-71
2024/03/14 14:32:52;;;;;;;4.68;4.13;;;;;;;;;;5040411;28;20201;-70
2024/03/14 14:35:20;;;;;;;5.53;4.43;;;;;;;;;;5038303;28;20792;-70